Time;durP1;ratioP1;P1;durP2;ratioP2;P2;SDS_P1;SDS_P2;PMS_P1;PMS_P2;Temp;Humidity;BMP_temperature;BMP_pressure;BME280_temperature;BME280_humidity;BME280_pressure;Samples;Min_cycle;Max_cycle;Signal;HPM_P1;HPM_P2
2021/12/02 00:01:59;;;;;;;;;8.00;6.25;;;;;;;;5114196;27;45448;-63
2021/12/02 00:04:27;;;;;;;;;5.75;4.00;;;;;;;;5114194;27;45590;-63
2021/12/02 00:06:52;;;;;;;;;4.75;4.25;;;;;;;;5112909;27;45562;-63
2021/12/02 00:09:18;;;;;;;;;6.25;4.00;;;;;;;;5114051;27;45578;-65
2021/12/02 00:11:43;;;;;;;;;5.25;5.25;;;;;;;;5112970;27;45685;-63
2021/12/02 00:14:11;;;;;;;;;7.75;4.00;;;;;;;;5095822;27;45520;-63
2021/12/02 00:16:49;;;;;;;;;7.75;4.00;;;;;;;;5093726;27;45539;-63
2021/12/02 00:22:01;;;;;;;;;4.00;2.50;;;;;;;;5113081;27;45534;-63
2021/12/02 00:24:33;;;;;;;;;8.50;4.25;;;;;;;;5111339;27;45720;-63
2021/12/02 00:26:59;;;;;;;;;4.50;4.00;;;;;;;;5108985;27;45835;-63
2021/12/02 00:29:24;;;;;;;;;6.50;4.00;;;;;;;;5108197;27;45535;-63
2021/12/02 00:31:51;;;;;;;;;7.25;6.00;;;;;;;;5107332;27;46532;-63
2021/12/02 00:34:16;;;;;;;;;4.00;2.00;;;;;;;;5077011;27;46025;-63
2021/12/02 00:36:41;;;;;;;;;8.25;7.00;;;;;;;;5099655;27;45523;-62
2021/12/02 00:39:17;;;;;;;;;2.25;2.25;;;;;;;;5106329;27;45347;-63
2021/12/02 00:41:43;;;;;;;;;5.50;5.50;;;;;;;;5109208;27;46730;-63
2021/12/02 00:44:09;;;;;;;;;6.25;6.00;;;;;;;;5108818;27;45431;-62
2021/12/02 00:46:35;;;;;;;;;6.25;6.25;;;;;;;;5110555;27;45345;-63
2021/12/02 00:49:03;;;;;;;;;4.75;4.75;;;;;;;;5112128;27;45370;-62
2021/12/02 00:51:29;;;;;;;;;7.00;5.00;;;;;;;;5110824;27;46497;-62
2021/12/02 00:53:59;;;;;;;;;5.50;5.00;;;;;;;;5108668;27;45435;-63
2021/12/02 00:56:25;;;;;;;;;7.00;4.50;;;;;;;;5106768;27;45737;-63
2021/12/02 00:58:50;;;;;;;;;5.25;5.25;;;;;;;;5100198;27;45561;-63
2021/12/02 01:01:17;;;;;;;;;4.25;4.00;;;;;;;;5096026;27;45353;-64
2021/12/02 01:03:43;;;;;;;;;8.00;7.00;;;;;;;;5109815;27;45496;-63
2021/12/02 01:06:08;;;;;;;;;4.50;4.50;;;;;;;;5090314;27;45594;-63
2021/12/02 01:08:34;;;;;;;;;4.75;4.75;;;;;;;;5108554;27;45515;-63
2021/12/02 01:11:00;;;;;;;;;5.50;4.00;;;;;;;;5108617;27;45677;-63
2021/12/02 01:13:25;;;;;;;;;6.00;6.00;;;;;;;;5111527;27;45376;-63
2021/12/02 01:15:51;;;;;;;;;5.50;5.00;;;;;;;;5111270;27;45664;-63
2021/12/02 01:18:17;;;;;;;;;5.00;5.00;;;;;;;;5109846;27;45265;-63
2021/12/02 01:20:45;;;;;;;;;7.25;5.50;;;;;;;;5107969;27;46039;-63
2021/12/02 01:23:11;;;;;;;;;4.00;4.00;;;;;;;;5108443;27;45606;-63
2021/12/02 01:25:36;;;;;;;;;5.25;5.25;;;;;;;;5110060;27;45498;-63
2021/12/02 01:28:02;;;;;;;;;7.25;7.25;;;;;;;;5092058;27;45458;-63
2021/12/02 01:30:28;;;;;;;;;7.00;5.25;;;;;;;;5113334;27;46007;-64
2021/12/02 01:33:03;;;;;;;;;7.75;7.50;;;;;;;;5103614;27;45760;-63
2021/12/02 01:35:29;;;;;;;;;10.25;6.50;;;;;;;;5103568;27;45534;-63
2021/12/02 01:37:55;;;;;;;;;9.00;7.75;;;;;;;;5084620;27;45358;-63
2021/12/02 01:40:21;;;;;;;;;8.00;7.00;;;;;;;;5109225;27;45730;-64
2021/12/02 01:42:49;;;;;;;;;2.75;2.50;;;;;;;;5080455;27;45422;-64
2021/12/02 01:45:15;;;;;;;;;6.25;6.25;;;;;;;;5112319;27;45521;-65
2021/12/02 01:47:48;;;;;;;;;7.50;7.50;;;;;;;;5111152;27;45487;-63
2021/12/02 01:50:14;;;;;;;;;7.00;7.00;;;;;;;;5111265;27;45900;-63
2021/12/02 01:52:43;;;;;;;;;6.00;6.00;;;;;;;;5078603;27;45851;-63
2021/12/02 01:55:12;;;;;;;;;8.75;7.50;;;;;;;;5115957;27;45868;-63
2021/12/02 01:57:48;;;;;;;;;8.50;7.00;;;;;;;;5113725;27;45898;-63
2021/12/02 02:00:15;;;;;;;;;8.00;6.50;;;;;;;;5097260;27;45868;-63
2021/12/02 02:02:40;;;;;;;;;5.00;4.50;;;;;;;;5111244;27;45422;-63
2021/12/02 02:05:11;;;;;;;;;4.75;4.75;;;;;;;;5093149;27;45468;-63
2021/12/02 02:07:40;;;;;;;;;8.25;5.50;;;;;;;;5113048;27;45489;-63
2021/12/02 02:10:06;;;;;;;;;7.75;6.50;;;;;;;;5115172;27;45765;-63
2021/12/02 02:12:33;;;;;;;;;8.25;7.00;;;;;;;;5097776;27;45483;-63
2021/12/02 02:14:59;;;;;;;;;6.25;4.25;;;;;;;;5104789;27;45671;-63
2021/12/02 02:17:28;;;;;;;;;6.25;4.00;;;;;;;;5086354;27;45455;-63
2021/12/02 02:19:54;;;;;;;;;8.50;8.50;;;;;;;;5110674;27;46675;-63
2021/12/02 02:22:22;;;;;;;;;5.00;4.00;;;;;;;;5114802;27;45533;-63
2021/12/02 02:24:48;;;;;;;;;3.00;2.50;;;;;;;;5117040;27;45498;-63
2021/12/02 02:27:13;;;;;;;;;7.25;5.25;;;;;;;;5093446;27;45428;-63
2021/12/02 02:29:38;;;;;;;;;4.25;4.25;;;;;;;;5110860;27;46406;-63
2021/12/02 02:32:04;;;;;;;;;4.25;4.00;;;;;;;;5110989;27;45623;-63
2021/12/02 02:34:29;;;;;;;;;5.50;5.50;;;;;;;;5095344;27;45440;-63
2021/12/02 02:36:56;;;;;;;;;3.25;3.25;;;;;;;;5116207;27;45524;-63
2021/12/02 02:39:22;;;;;;;;;4.75;4.75;;;;;;;;5093053;27;47677;-62
2021/12/02 02:41:56;;;;;;;;;5.00;5.00;;;;;;;;5110867;27;45465;-63
2021/12/02 02:44:22;;;;;;;;;6.00;2.50;;;;;;;;5110958;27;45656;-62
2021/12/02 02:46:47;;;;;;;;;2.25;2.00;;;;;;;;5113683;27;45542;-63
2021/12/02 02:49:13;;;;;;;;;3.50;3.25;;;;;;;;5100977;27;46612;-62
2021/12/02 02:51:39;;;;;;;;;1.25;1.25;;;;;;;;5115903;27;45762;-63
2021/12/02 02:54:08;;;;;;;;;2.00;2.00;;;;;;;;5103240;27;45621;-63
2021/12/02 02:56:36;;;;;;;;;2.75;1.75;;;;;;;;5101708;27;45582;-62
2021/12/02 03:12:21;;;;;;;;;2.00;2.00;;;;;;;;5110174;27;45402;-63
2021/12/02 03:16:36;;;;;;;;;4.00;4.00;;;;;;;;5110394;27;45453;-63
2021/12/02 03:17:33;;;;;;;;;2.00;2.00;;;;;;;;5110215;27;45466;-63
2021/12/02 03:19:59;;;;;;;;;2.00;2.00;;;;;;;;5091559;27;45753;-63
2021/12/02 03:22:24;;;;;;;;;2.00;2.00;;;;;;;;5113375;27;45513;-64
2021/12/02 03:24:50;;;;;;;;;2.25;1.00;;;;;;;;5116340;27;45442;-63
2021/12/02 03:27:15;;;;;;;;;1.00;0.00;;;;;;;;5111298;27;45593;-63
2021/12/02 03:29:41;;;;;;;;;1.00;1.00;;;;;;;;5086546;27;46969;-63
2021/12/02 03:32:07;;;;;;;;;2.00;2.00;;;;;;;;5101963;27;45385;-63
2021/12/02 03:34:32;;;;;;;;;1.00;1.00;;;;;;;;5099723;27;45412;-63
2021/12/02 03:36:58;;;;;;;;;2.00;1.00;;;;;;;;5115192;27;45556;-63
2021/12/02 03:39:23;;;;;;;;;3.00;2.00;;;;;;;;5100532;27;45868;-63
2021/12/02 03:41:48;;;;;;;;;2.00;1.50;;;;;;;;5101230;27;45395;-63
2021/12/02 03:44:14;;;;;;;;;2.00;0.00;;;;;;;;5083270;27;45439;-63
2021/12/02 03:46:40;;;;;;;;;1.00;0.00;;;;;;;;5100364;27;45475;-63
2021/12/02 03:49:09;;;;;;;;;2.00;1.00;;;;;;;;5095905;27;47951;-63
2021/12/02 03:51:34;;;;;;;;;1.00;1.00;;;;;;;;5111687;27;45424;-63
2021/12/02 03:53:59;;;;;;;;;0.00;0.00;;;;;;;;5109879;27;45318;-63
2021/12/02 03:56:25;;;;;;;;;0.50;0.50;;;;;;;;5095102;27;45455;-63
2021/12/02 03:58:51;;;;;;;;;2.25;0.00;;;;;;;;5095099;27;48800;-63
2021/12/02 04:01:17;;;;;;;;;0.00;0.00;;;;;;;;5113909;27;45698;-63
2021/12/02 04:03:42;;;;;;;;;2.00;1.00;;;;;;;;5116013;27;45588;-63
2021/12/02 04:06:08;;;;;;;;;1.00;1.00;;;;;;;;5095717;27;45506;-63
2021/12/02 04:08:44;;;;;;;;;0.50;0.00;;;;;;;;5113597;27;46009;-63
2021/12/02 04:13:45;;;;;;;;;3.00;0.75;;;;;;;;5113754;27;45514;-63
2021/12/02 04:16:16;;;;;;;;;3.00;1.00;;;;;;;;5113360;27;45659;-63
2021/12/02 04:18:41;;;;;;;;;1.00;0.00;;;;;;;;5114262;27;45779;-63
2021/12/02 04:21:06;;;;;;;;;0.50;0.25;;;;;;;;5112907;27;45462;-63
2021/12/02 04:23:32;;;;;;;;;0.00;0.00;;;;;;;;5113365;27;45323;-63
2021/12/02 04:25:57;;;;;;;;;1.00;1.00;;;;;;;;5113396;27;45301;-63
2021/12/02 04:28:22;;;;;;;;;1.00;1.00;;;;;;;;5112500;27;46329;-63
2021/12/02 04:30:47;;;;;;;;;1.00;1.00;;;;;;;;5111697;27;45330;-63
2021/12/02 04:33:12;;;;;;;;;1.00;1.00;;;;;;;;5110060;27;45487;-63
2021/12/02 04:35:38;;;;;;;;;1.50;1.25;;;;;;;;5113220;27;45295;-63
2021/12/02 04:38:03;;;;;;;;;1.75;1.25;;;;;;;;5108965;27;46102;-63
2021/12/02 04:40:28;;;;;;;;;1.00;1.00;;;;;;;;5111735;27;45333;-63
2021/12/02 04:42:54;;;;;;;;;2.00;2.00;;;;;;;;5112207;27;45361;-63
2021/12/02 04:45:19;;;;;;;;;4.00;1.25;;;;;;;;5091959;27;45448;-63
2021/12/02 04:47:44;;;;;;;;;1.00;1.00;;;;;;;;5112544;27;46377;-63
2021/12/02 04:50:10;;;;;;;;;3.75;0.00;;;;;;;;5109016;27;45523;-63
2021/12/02 04:52:36;;;;;;;;;2.25;1.00;;;;;;;;5099066;27;45481;-63
2021/12/02 04:55:01;;;;;;;;;2.25;1.00;;;;;;;;5079217;27;45442;-63
2021/12/02 04:57:26;;;;;;;;;0.50;0.00;;;;;;;;5081108;27;47120;-63
2021/12/02 04:59:52;;;;;;;;;2.25;1.25;;;;;;;;5081636;27;46026;-63
2021/12/02 05:02:17;;;;;;;;;2.00;2.00;;;;;;;;5101037;27;45410;-63
2021/12/02 05:04:42;;;;;;;;;0.00;0.00;;;;;;;;5103669;27;45304;-63
2021/12/02 05:07:08;;;;;;;;;1.50;1.50;;;;;;;;5100073;27;45471;-63
2021/12/02 05:09:33;;;;;;;;;1.25;1.00;;;;;;;;5103255;27;45341;-63
2021/12/02 05:11:58;;;;;;;;;1.00;1.00;;;;;;;;5113852;27;45803;-63
2021/12/02 05:14:24;;;;;;;;;1.75;1.75;;;;;;;;5112272;27;45678;-64
2021/12/02 05:16:49;;;;;;;;;2.75;1.75;;;;;;;;5112285;27;45403;-64
2021/12/02 05:19:14;;;;;;;;;2.00;1.00;;;;;;;;5117116;27;45546;-64
2021/12/02 05:21:40;;;;;;;;;3.00;3.00;;;;;;;;5114392;27;45372;-63
2021/12/02 05:24:05;;;;;;;;;2.00;0.50;;;;;;;;5116518;27;46459;-63
2021/12/02 05:26:31;;;;;;;;;1.50;1.50;;;;;;;;5112426;27;45745;-63
2021/12/02 05:28:56;;;;;;;;;1.00;1.00;;;;;;;;5095488;27;45391;-64
2021/12/02 05:31:22;;;;;;;;;2.75;1.75;;;;;;;;5099889;27;45392;-63
2021/12/02 05:33:47;;;;;;;;;1.25;1.25;;;;;;;;5083354;27;45453;-63
2021/12/02 05:36:13;;;;;;;;;2.50;2.00;;;;;;;;5115401;27;45663;-63
2021/12/02 05:38:38;;;;;;;;;2.00;2.00;;;;;;;;5111699;27;45642;-63
2021/12/02 05:41:03;;;;;;;;;4.00;2.00;;;;;;;;5112217;27;45444;-63
2021/12/02 05:43:29;;;;;;;;;2.00;1.00;;;;;;;;5096102;27;45459;-63
2021/12/02 05:45:55;;;;;;;;;8.50;3.00;;;;;;;;5114553;27;46829;-63
2021/12/02 05:48:20;;;;;;;;;5.50;1.75;;;;;;;;5098606;27;45449;-63
2021/12/02 05:50:45;;;;;;;;;1.50;1.50;;;;;;;;5111772;27;45509;-63
2021/12/02 05:53:11;;;;;;;;;2.25;2.25;;;;;;;;5111884;27;45516;-62
2021/12/02 05:55:36;;;;;;;;;4.25;2.00;;;;;;;;5094631;27;47749;-63
2021/12/02 05:58:01;;;;;;;;;4.25;2.75;;;;;;;;5114743;27;45656;-63
2021/12/02 06:00:27;;;;;;;;;2.25;2.25;;;;;;;;5113820;27;45549;-63
2021/12/02 06:02:52;;;;;;;;;2.75;2.00;;;;;;;;5086594;27;45506;-63
2021/12/02 06:05:20;;;;;;;;;4.00;2.25;;;;;;;;5085669;27;47848;-62
2021/12/02 06:07:46;;;;;;;;;4.00;2.75;;;;;;;;5114955;27;45439;-63
2021/12/02 06:10:11;;;;;;;;;2.00;2.00;;;;;;;;5102206;27;45673;-64
2021/12/02 06:12:37;;;;;;;;;3.50;2.50;;;;;;;;5109213;27;45439;-63
2021/12/02 06:15:02;;;;;;;;;2.00;1.00;;;;;;;;5086167;27;48094;-63
2021/12/02 06:17:27;;;;;;;;;3.00;3.00;;;;;;;;5109966;27;45572;-63
2021/12/02 06:19:53;;;;;;;;;2.00;2.00;;;;;;;;5083902;27;45437;-63
2021/12/02 06:22:18;;;;;;;;;2.75;2.00;;;;;;;;5108716;27;45507;-65
2021/12/02 06:25:04;;;;;;;;;4.25;2.50;;;;;;;;5097511;27;47917;-64
2021/12/02 06:27:29;;;;;;;;;3.00;3.00;;;;;;;;5101330;27;45341;-63
2021/12/02 06:29:55;;;;;;;;;2.00;2.00;;;;;;;;5107359;27;45506;-63
2021/12/02 06:32:20;;;;;;;;;4.50;2.25;;;;;;;;5101977;27;45494;-64
2021/12/02 06:34:45;;;;;;;;;3.50;2.00;;;;;;;;5102152;27;45437;-63
2021/12/02 06:37:13;;;;;;;;;2.00;2.00;;;;;;;;5104338;27;45444;-64
2021/12/02 06:39:38;;;;;;;;;4.00;3.75;;;;;;;;5089878;27;45494;-64
2021/12/02 06:42:04;;;;;;;;;5.50;5.50;;;;;;;;5108032;27;45627;-64
2021/12/02 06:44:29;;;;;;;;;2.75;2.50;;;;;;;;5105696;27;46361;-64
2021/12/02 06:46:56;;;;;;;;;2.50;2.50;;;;;;;;5105124;27;45432;-64
2021/12/02 06:49:21;;;;;;;;;3.00;3.00;;;;;;;;5082324;27;45349;-64
2021/12/02 06:51:46;;;;;;;;;6.00;4.00;;;;;;;;5106609;27;45507;-64
2021/12/02 06:54:12;;;;;;;;;3.00;3.00;;;;;;;;5085599;27;47385;-64
2021/12/02 06:56:37;;;;;;;;;2.50;2.50;;;;;;;;5102838;27;45384;-64
2021/12/02 06:59:03;;;;;;;;;4.00;2.25;;;;;;;;5108499;27;45604;-65
2021/12/02 07:01:28;;;;;;;;;5.25;5.25;;;;;;;;5100131;27;45331;-65
2021/12/02 07:03:53;;;;;;;;;3.00;3.00;;;;;;;;5111337;27;46011;-65
2021/12/02 07:06:18;;;;;;;;;4.75;2.75;;;;;;;;5079108;27;45802;-66
2021/12/02 07:08:43;;;;;;;;;1.75;1.75;;;;;;;;5109975;27;45442;-65
2021/12/02 07:11:10;;;;;;;;;2.50;1.00;;;;;;;;5110300;27;45308;-65
2021/12/02 07:13:37;;;;;;;;;1.75;1.75;;;;;;;;5111387;27;45711;-64
2021/12/02 07:16:02;;;;;;;;;1.50;1.50;;;;;;;;5113231;27;45310;-64
2021/12/02 07:18:28;;;;;;;;;6.00;4.25;;;;;;;;5112170;27;45397;-64
2021/12/02 07:20:54;;;;;;;;;6.50;4.25;;;;;;;;5091670;27;45483;-65
2021/12/02 07:23:20;;;;;;;;;7.00;6.50;;;;;;;;5110010;27;45724;-65
2021/12/02 07:25:46;;;;;;;;;6.25;4.50;;;;;;;;5112901;27;45494;-65
2021/12/02 07:28:12;;;;;;;;;7.50;7.50;;;;;;;;5078715;27;45973;-65
2021/12/02 07:30:38;;;;;;;;;10.25;10.00;;;;;;;;5116257;27;45497;-64
2021/12/02 07:33:04;;;;;;;;;7.00;4.75;;;;;;;;5109866;27;45766;-64
2021/12/02 07:35:29;;;;;;;;;6.75;5.75;;;;;;;;5091411;27;45487;-64
2021/12/02 07:37:57;;;;;;;;;5.00;3.00;;;;;;;;5109926;27;45431;-64
2021/12/02 07:40:23;;;;;;;;;6.00;3.75;;;;;;;;5113951;27;45395;-64
2021/12/02 07:42:51;;;;;;;;;6.00;6.00;;;;;;;;5112267;27;45472;-65
2021/12/02 07:45:17;;;;;;;;;6.50;6.50;;;;;;;;5110606;27;45470;-64
2021/12/02 07:47:42;;;;;;;;;4.25;3.00;;;;;;;;5109568;27;45426;-64
2021/12/02 07:50:11;;;;;;;;;6.50;6.50;;;;;;;;5091368;27;45467;-64
2021/12/02 07:52:40;;;;;;;;;2.75;2.75;;;;;;;;5099606;27;45693;-64
2021/12/02 07:55:08;;;;;;;;;10.00;7.25;;;;;;;;5101237;27;45488;-64
2021/12/02 07:57:34;;;;;;;;;5.00;3.50;;;;;;;;5105830;27;45880;-65
2021/12/02 08:00:01;;;;;;;;;5.25;4.00;;;;;;;;5102307;27;45443;-65
2021/12/02 08:02:32;;;;;;;;;10.00;8.00;;;;;;;;5100557;27;45585;-66
2021/12/02 08:04:58;;;;;;;;;14.50;13.50;;;;;;;;5100941;27;45408;-64
2021/12/02 08:07:23;;;;;;;;;15.75;15.75;;;;;;;;5097629;27;45482;-64
2021/12/02 08:09:50;;;;;;;;;28.50;23.75;;;;;;;;5098974;27;45378;-64
2021/12/02 08:12:15;;;;;;;;;8.75;8.75;;;;;;;;5100542;27;46277;-63
2021/12/02 08:14:40;;;;;;;;;7.50;7.50;;;;;;;;5100528;27;45511;-64
2021/12/02 08:17:06;;;;;;;;;10.75;8.00;;;;;;;;5070170;27;45639;-64
2021/12/02 08:19:31;;;;;;;;;8.00;8.00;;;;;;;;5093021;27;45438;-64
2021/12/02 08:21:56;;;;;;;;;7.00;4.00;;;;;;;;5111705;27;46508;-64
2021/12/02 08:24:23;;;;;;;;;10.00;6.50;;;;;;;;5096577;27;45477;-65
2021/12/02 08:26:49;;;;;;;;;8.00;7.00;;;;;;;;5090768;27;45365;-65
2021/12/02 08:29:14;;;;;;;;;6.25;3.25;;;;;;;;5105841;27;45423;-64
2021/12/02 08:31:39;;;;;;;;;7.00;7.00;;;;;;;;5099314;27;46329;-64
2021/12/02 08:34:05;;;;;;;;;6.00;2.75;;;;;;;;5097237;27;45179;-64
2021/12/02 08:36:41;;;;;;;;;1.75;1.75;;;;;;;;5113282;27;45562;-64
2021/12/02 08:39:07;;;;;;;;;2.75;2.75;;;;;;;;5108860;27;45451;-64
2021/12/02 08:41:33;;;;;;;;;6.75;3.50;;;;;;;;5108655;27;45731;-64
2021/12/02 08:43:58;;;;;;;;;8.75;3.50;;;;;;;;5110221;27;45507;-64
2021/12/02 08:46:26;;;;;;;;;8.00;8.00;;;;;;;;5078565;27;45440;-64
2021/12/02 08:48:53;;;;;;;;;4.50;4.50;;;;;;;;5112599;27;45963;-64
2021/12/02 08:51:18;;;;;;;;;7.00;4.50;;;;;;;;5078475;27;47452;-64
2021/12/02 08:53:43;;;;;;;;;8.00;7.00;;;;;;;;5086913;27;45970;-64
2021/12/02 08:56:09;;;;;;;;;8.00;4.00;;;;;;;;5108897;27;45344;-64
2021/12/02 08:58:36;;;;;;;;;7.25;5.50;;;;;;;;5112989;27;45394;-64
2021/12/02 09:01:01;;;;;;;;;3.50;3.50;;;;;;;;5094746;27;47530;-64
2021/12/02 09:03:27;;;;;;;;;3.25;2.50;;;;;;;;5092355;27;45251;-64
2021/12/02 09:05:52;;;;;;;;;6.00;3.00;;;;;;;;5109247;27;45513;-65
2021/12/02 09:08:19;;;;;;;;;5.25;4.50;;;;;;;;5109306;27;45512;-64
2021/12/02 09:10:45;;;;;;;;;2.75;1.25;;;;;;;;5090278;27;47808;-64
2021/12/02 09:13:10;;;;;;;;;3.00;3.00;;;;;;;;5111809;27;45486;-64
2021/12/02 09:15:37;;;;;;;;;8.00;5.50;;;;;;;;5091996;27;45471;-64
2021/12/02 09:18:02;;;;;;;;;6.00;4.75;;;;;;;;5108538;27;45591;-64
2021/12/02 09:20:27;;;;;;;;;4.50;4.50;;;;;;;;5107732;27;45615;-64
2021/12/02 09:22:53;;;;;;;;;5.00;3.25;;;;;;;;5093165;27;45417;-65
2021/12/02 09:25:18;;;;;;;;;3.00;2.50;;;;;;;;5116553;27;45610;-64
2021/12/02 09:27:44;;;;;;;;;4.75;3.00;;;;;;;;5104454;27;45375;-64
2021/12/02 09:30:09;;;;;;;;;2.25;1.75;;;;;;;;5100288;27;46508;-64
2021/12/02 09:32:36;;;;;;;;;3.50;2.00;;;;;;;;5099680;27;49748;-64
2021/12/02 09:35:01;;;;;;;;;3.00;2.00;;;;;;;;5101758;27;45756;-64
2021/12/02 09:37:27;;;;;;;;;4.25;3.00;;;;;;;;5092963;27;45583;-64
2021/12/02 09:39:52;;;;;;;;;3.00;3.00;;;;;;;;5111238;27;45492;-65
2021/12/02 09:42:17;;;;;;;;;5.50;3.25;;;;;;;;5109211;27;45487;-64
2021/12/02 09:44:44;;;;;;;;;3.25;3.00;;;;;;;;5108416;27;45577;-65
2021/12/02 09:47:09;;;;;;;;;3.00;3.00;;;;;;;;5112600;27;45785;-64
2021/12/02 09:49:35;;;;;;;;;6.00;5.00;;;;;;;;5112414;27;46223;-65
2021/12/02 09:52:06;;;;;;;;;2.00;2.00;;;;;;;;5114340;27;45586;-65
2021/12/02 09:54:41;;;;;;;;;3.00;3.00;;;;;;;;5114049;27;45330;-64
2021/12/02 09:57:11;;;;;;;;;4.75;4.00;;;;;;;;5093158;27;45573;-64
2021/12/02 10:02:09;;;;;;;;;2.75;2.75;;;;;;;;5111812;27;45535;-65
2021/12/02 10:04:41;;;;;;;;;3.00;1.50;;;;;;;;5101060;27;45387;-65
2021/12/02 10:07:15;;;;;;;;;1.00;1.00;;;;;;;;5099377;27;45374;-65
2021/12/02 10:09:53;;;;;;;;;2.50;2.00;;;;;;;;5083519;27;47409;-64
2021/12/02 10:12:21;;;;;;;;;4.00;1.00;;;;;;;;5085702;27;46445;-64
2021/12/02 10:14:56;;;;;;;;;3.00;3.00;;;;;;;;5102544;27;46263;-64
2021/12/02 10:23:04;;;;;;;;;12.00;12.00;;;;;;;;5102375;27;45764;-64
2021/12/02 10:25:31;;;;;;;;;9.75;9.75;;;;;;;;5082010;27;45513;-64
2021/12/02 10:28:04;;;;;;;;;4.00;2.25;;;;;;;;5081424;27;45621;-64
2021/12/02 10:30:29;;;;;;;;;4.50;4.50;;;;;;;;5101566;27;46604;-65
2021/12/02 10:32:55;;;;;;;;;7.00;5.75;;;;;;;;5102518;27;45525;-64
2021/12/02 10:35:35;;;;;;;;;5.00;3.00;;;;;;;;5102682;27;45436;-63
2021/12/02 10:38:00;;;;;;;;;9.50;9.50;;;;;;;;5102315;27;45470;-64
2021/12/02 10:40:26;;;;;;;;;24.75;19.50;;;;;;;;5098996;27;45409;-65
2021/12/02 10:42:52;;;;;;;;;9.25;9.00;;;;;;;;5100286;27;45365;-64
2021/12/02 10:45:21;;;;;;;;;9.50;9.50;;;;;;;;5084003;27;45424;-64
2021/12/02 10:47:48;;;;;;;;;4.75;4.75;;;;;;;;5102355;27;45388;-64
2021/12/02 10:50:13;;;;;;;;;1.50;1.50;;;;;;;;5101943;27;45978;-64
2021/12/02 10:52:39;;;;;;;;;3.00;1.25;;;;;;;;5100680;27;45421;-64
2021/12/02 10:55:09;;;;;;;;;4.75;2.00;;;;;;;;5098710;27;45365;-64
2021/12/02 10:57:36;;;;;;;;;3.00;2.00;;;;;;;;5082611;27;45397;-64
2021/12/02 11:00:06;;;;;;;;;2.00;2.00;;;;;;;;5082381;27;46863;-64
2021/12/02 11:02:34;;;;;;;;;2.25;2.25;;;;;;;;5101645;27;45714;-64
2021/12/02 11:05:06;;;;;;;;;1.00;1.00;;;;;;;;5100473;27;45432;-64
2021/12/02 11:07:40;;;;;;;;;1.25;1.00;;;;;;;;5112711;27;45506;-64
2021/12/02 11:10:15;;;;;;;;;0.75;0.25;;;;;;;;5113746;27;45368;-63
2021/12/02 11:12:41;;;;;;;;;3.00;1.00;;;;;;;;5093875;27;45830;-64
2021/12/02 11:15:08;;;;;;;;;0.00;0.00;;;;;;;;5110446;27;45332;-64
2021/12/02 11:17:35;;;;;;;;;0.00;0.00;;;;;;;;5110508;27;45432;-64
2021/12/02 11:20:04;;;;;;;;;0.75;0.75;;;;;;;;5091639;27;47188;-64
2021/12/02 11:22:29;;;;;;;;;0.50;0.50;;;;;;;;5096068;27;45514;-64
2021/12/02 11:24:55;;;;;;;;;0.00;0.00;;;;;;;;5099304;27;45344;-64
2021/12/02 11:27:35;;;;;;;;;1.00;0.75;;;;;;;;5101549;27;45372;-64
2021/12/02 11:30:10;;;;;;;;;0.00;0.00;;;;;;;;5101235;27;45701;-64
2021/12/02 11:32:40;;;;;;;;;4.00;2.50;;;;;;;;5101437;27;45361;-65
2021/12/02 11:35:06;;;;;;;;;0.00;0.00;;;;;;;;5102518;27;46016;-64
2021/12/02 11:37:32;;;;;;;;;11.50;10.75;;;;;;;;5080820;27;45455;-64
2021/12/02 11:40:01;;;;;;;;;4.50;4.50;;;;;;;;5098672;27;45694;-64
2021/12/02 11:42:27;;;;;;;;;10.25;8.00;;;;;;;;5081910;27;45365;-65
2021/12/02 11:44:52;;;;;;;;;2.25;2.25;;;;;;;;5101383;27;45455;-65
2021/12/02 11:47:18;;;;;;;;;3.00;3.00;;;;;;;;5082938;27;45501;-65
2021/12/02 11:49:43;;;;;;;;;8.75;8.50;;;;;;;;5100421;27;45356;-65
2021/12/02 11:52:09;;;;;;;;;9.75;9.00;;;;;;;;5097640;27;45382;-64
2021/12/02 11:54:34;;;;;;;;;3.25;3.25;;;;;;;;5082044;27;45638;-64
2021/12/02 11:56:59;;;;;;;;;6.25;6.25;;;;;;;;5082898;27;45518;-64
2021/12/02 11:59:25;;;;;;;;;10.75;9.00;;;;;;;;5101060;27;46414;-64
2021/12/02 12:01:57;;;;;;;;;10.50;9.50;;;;;;;;5101008;27;45431;-64
2021/12/02 12:04:22;;;;;;;;;5.00;5.00;;;;;;;;5078971;27;45431;-65
2021/12/02 12:07:06;;;;;;;;;5.25;5.25;;;;;;;;5099457;27;45527;-64
2021/12/02 12:09:32;;;;;;;;;8.25;8.25;;;;;;;;5099953;27;45987;-64
2021/12/02 12:11:57;;;;;;;;;4.00;4.00;;;;;;;;5081782;27;45449;-64
2021/12/02 12:14:34;;;;;;;;;9.00;9.00;;;;;;;;5101074;27;45835;-64
2021/12/02 12:17:04;;;;;;;;;6.50;3.75;;;;;;;;5101042;27;45509;-64
2021/12/02 12:19:31;;;;;;;;;1.50;1.50;;;;;;;;5097877;27;45618;-64
2021/12/02 12:21:56;;;;;;;;;6.75;5.00;;;;;;;;5097710;27;45773;-64
2021/12/02 12:24:40;;;;;;;;;3.25;3.25;;;;;;;;5101399;27;45329;-64
2021/12/02 12:27:11;;;;;;;;;5.50;5.50;;;;;;;;5100795;27;45377;-64
2021/12/02 12:29:36;;;;;;;;;18.25;18.00;;;;;;;;5100453;27;46708;-64
2021/12/02 12:32:09;;;;;;;;;5.50;5.00;;;;;;;;5100458;27;45402;-64
2021/12/02 12:37:26;;;;;;;;;22.00;19.75;;;;;;;;5099786;27;45381;-64
2021/12/02 12:40:03;;;;;;;;;13.75;13.75;;;;;;;;5116008;27;45618;-64
2021/12/02 12:42:28;;;;;;;;;6.75;6.75;;;;;;;;5099947;27;45505;-64
2021/12/02 12:44:55;;;;;;;;;2.00;2.00;;;;;;;;5074673;27;45428;-64
2021/12/02 12:47:39;;;;;;;;;10.50;5.75;;;;;;;;5108848;27;45530;-64
2021/12/02 12:50:24;;;;;;;;;4.75;4.00;;;;;;;;5108615;27;45701;-64
2021/12/02 12:52:53;;;;;;;;;4.75;4.75;;;;;;;;5108974;27;45394;-64
2021/12/02 12:55:20;;;;;;;;;2.75;2.75;;;;;;;;5102409;27;45406;-64
2021/12/02 12:58:18;;;;;;;;;2.00;2.00;;;;;;;;5093002;27;45532;-64
2021/12/02 13:00:49;;;;;;;;;2.00;2.00;;;;;;;;5051529;28;46984;-64
2021/12/02 13:03:17;;;;;;;;;0.00;0.00;;;;;;;;5036906;28;45363;-64
2021/12/02 13:05:52;;;;;;;;;1.50;0.50;;;;;;;;5036697;28;45488;-65
2021/12/02 13:08:17;;;;;;;;;5.00;2.00;;;;;;;;5047537;28;45720;-65
2021/12/02 13:10:52;;;;;;;;;1.00;0.00;;;;;;;;5045873;28;46458;-64
2021/12/02 13:13:25;;;;;;;;;0.00;0.00;;;;;;;;5034093;28;45535;-64
2021/12/02 13:15:51;;;;;;;;;1.00;1.00;;;;;;;;5047775;28;45457;-65
2021/12/02 13:18:32;;;;;;;;;0.00;0.00;;;;;;;;5037418;28;45371;-64
2021/12/02 13:20:58;;;;;;;;;0.00;0.00;;;;;;;;5024556;28;46399;-64
2021/12/02 13:23:28;;;;;;;;;1.00;0.00;;;;;;;;5025420;28;45414;-64
2021/12/02 13:25:55;;;;;;;;;1.00;0.00;;;;;;;;5028469;28;45358;-65
2021/12/02 13:28:40;;;;;;;;;0.00;0.00;;;;;;;;5032460;28;45424;-64
2021/12/02 13:31:09;;;;;;;;;0.00;0.00;;;;;;;;5015801;28;47418;-65
2021/12/02 13:33:40;;;;;;;;;2.00;1.00;;;;;;;;5030303;28;45439;-65
2021/12/02 13:36:06;;;;;;;;;1.00;0.00;;;;;;;;5027650;28;45664;-65
2021/12/02 13:38:32;;;;;;;;;0.00;0.00;;;;;;;;5085979;27;45356;-64
2021/12/02 13:41:09;;;;;;;;;0.00;0.00;;;;;;;;5091250;27;45626;-64
2021/12/02 13:43:48;;;;;;;;;0.00;0.00;;;;;;;;5093297;27;45477;-65
2021/12/02 13:46:14;;;;;;;;;0.00;0.00;;;;;;;;5095886;27;45365;-65
2021/12/02 13:48:51;;;;;;;;;0.00;0.00;;;;;;;;5093274;27;45330;-64
2021/12/02 13:54:15;;;;;;;;;0.00;0.00;;;;;;;;5083314;27;45376;-65
2021/12/02 13:56:41;;;;;;;;;2.00;0.00;;;;;;;;5087089;27;45573;-64
2021/12/02 13:59:14;;;;;;;;;1.25;0.25;;;;;;;;5082516;27;45432;-64
2021/12/02 14:01:53;;;;;;;;;0.00;0.00;;;;;;;;5081247;27;46102;-64
2021/12/02 14:04:19;;;;;;;;;1.00;0.75;;;;;;;;5079774;27;45555;-64
2021/12/02 14:06:44;;;;;;;;;0.00;0.00;;;;;;;;5074935;27;45869;-64
2021/12/02 14:09:13;;;;;;;;;0.00;0.00;;;;;;;;5091037;27;45611;-64
2021/12/02 14:11:38;;;;;;;;;0.00;0.00;;;;;;;;5090736;27;47984;-64
2021/12/02 14:14:04;;;;;;;;;0.00;0.00;;;;;;;;5072518;27;45492;-64
2021/12/02 14:16:29;;;;;;;;;1.00;0.00;;;;;;;;5093802;27;45406;-64
2021/12/02 14:18:58;;;;;;;;;1.00;0.00;;;;;;;;5075616;27;45548;-64
2021/12/02 14:21:24;;;;;;;;;0.00;0.00;;;;;;;;5106892;27;47634;-64
2021/12/02 14:23:54;;;;;;;;;1.00;0.00;;;;;;;;5111116;27;45782;-64
2021/12/02 14:26:21;;;;;;;;;0.00;0.00;;;;;;;;5111461;27;46219;-64
2021/12/02 14:28:49;;;;;;;;;3.00;3.00;;;;;;;;5111549;27;46160;-64
2021/12/02 14:31:23;;;;;;;;;17.25;16.25;;;;;;;;5080260;27;48609;-64
2021/12/02 14:33:49;;;;;;;;;8.75;8.75;;;;;;;;5113760;27;45274;-64
2021/12/02 14:36:15;;;;;;;;;9.75;9.75;;;;;;;;5104723;27;45458;-65
2021/12/02 14:38:41;;;;;;;;;8.25;5.00;;;;;;;;5108140;27;45458;-65
2021/12/02 14:41:16;;;;;;;;;3.00;2.00;;;;;;;;5105610;27;46176;-65
2021/12/02 14:43:52;;;;;;;;;1.25;1.00;;;;;;;;5105279;27;45591;-65
2021/12/02 14:46:18;;;;;;;;;1.00;1.00;;;;;;;;5113739;27;45481;-65
2021/12/02 14:48:44;;;;;;;;;0.25;0.25;;;;;;;;5100995;27;45379;-66
2021/12/02 14:51:11;;;;;;;;;0.50;0.50;;;;;;;;5083498;27;47144;-66
2021/12/02 14:53:40;;;;;;;;;1.00;1.00;;;;;;;;5095436;27;46114;-66
2021/12/02 14:56:26;;;;;;;;;3.00;1.00;;;;;;;;5110317;27;45566;-64
2021/12/02 14:59:24;;;;;;;;;3.00;2.00;;;;;;;;5091983;27;45766;-63
2021/12/02 15:02:07;;;;;;;;;2.00;1.25;;;;;;;;5016871;28;46053;-65
2021/12/02 15:04:49;;;;;;;;;1.50;1.50;;;;;;;;5030165;28;45509;-64
2021/12/02 15:07:18;;;;;;;;;2.25;2.25;;;;;;;;5032516;28;45771;-63
2021/12/02 15:09:53;;;;;;;;;1.00;1.00;;;;;;;;5029069;28;45525;-64
2021/12/02 15:12:21;;;;;;;;;0.00;0.00;;;;;;;;5037115;28;45823;-63
2021/12/02 15:14:48;;;;;;;;;0.00;0.00;;;;;;;;5027615;28;45415;-63
2021/12/02 15:17:15;;;;;;;;;0.00;0.00;;;;;;;;5031103;28;45546;-64